sensor_id;sensor_type;location;lat;lon;timestamp;P1;durP1;ratioP1;P2;durP2;ratioP2
16766;SDS011;8501;49.926;8.404;2023-03-21T00:02:16;12.93;;;7.20;;
16766;SDS011;8501;49.926;8.404;2023-03-21T00:04:41;9.27;;;6.07;;
16766;SDS011;8501;49.926;8.404;2023-03-21T00:07:07;9.37;;;6.43;;
16766;SDS011;8501;49.926;8.404;2023-03-21T00:09:32;10.87;;;6.27;;
16766;SDS011;8501;49.926;8.404;2023-03-21T00:11:58;11.43;;;6.23;;
16766;SDS011;8501;49.926;8.404;2023-03-21T00:14:25;11.80;;;6.37;;
16766;SDS011;8501;49.926;8.404;2023-03-21T00:16:54;13.90;;;7.00;;
16766;SDS011;8501;49.926;8.404;2023-03-21T00:19:20;10.40;;;6.63;;
16766;SDS011;8501;49.926;8.404;2023-03-21T00:21:48;10.97;;;6.60;;
16766;SDS011;8501;49.926;8.404;2023-03-21T00:24:16;10.83;;;7.17;;
16766;SDS011;8501;49.926;8.404;2023-03-21T00:26:42;11.73;;;6.60;;
16766;SDS011;8501;49.926;8.404;2023-03-21T00:29:07;12.83;;;6.53;;
16766;SDS011;8501;49.926;8.404;2023-03-21T00:31:34;12.70;;;7.00;;
16766;SDS011;8501;49.926;8.404;2023-03-21T00:33:59;10.67;;;6.70;;
16766;SDS011;8501;49.926;8.404;2023-03-21T00:36:25;10.07;;;6.47;;
16766;SDS011;8501;49.926;8.404;2023-03-21T00:38:51;10.17;;;6.80;;
16766;SDS011;8501;49.926;8.404;2023-03-21T00:41:17;13.53;;;7.07;;
16766;SDS011;8501;49.926;8.404;2023-03-21T00:43:43;10.53;;;6.80;;
16766;SDS011;8501;49.926;8.404;2023-03-21T00:46:08;11.30;;;6.80;;
16766;SDS011;8501;49.926;8.404;2023-03-21T00:48:34;13.13;;;6.90;;
16766;SDS011;8501;49.926;8.404;2023-03-21T00:51:00;13.93;;;7.37;;
16766;SDS011;8501;49.926;8.404;2023-03-21T00:53:26;11.63;;;7.27;;
16766;SDS011;8501;49.926;8.404;2023-03-21T00:55:52;11.57;;;6.97;;
16766;SDS011;8501;49.926;8.404;2023-03-21T00:58:18;10.60;;;7.07;;
16766;SDS011;8501;49.926;8.404;2023-03-21T01:00:43;12.20;;;7.60;;
16766;SDS011;8501;49.926;8.404;2023-03-21T01:03:11;13.03;;;7.23;;
16766;SDS011;8501;49.926;8.404;2023-03-21T01:05:47;12.60;;;7.13;;
16766;SDS011;8501;49.926;8.404;2023-03-21T01:08:30;10.63;;;6.90;;
16766;SDS011;8501;49.926;8.404;2023-03-21T01:11:01;14.50;;;7.80;;
16766;SDS011;8501;49.926;8.404;2023-03-21T01:13:31;10.93;;;7.53;;
16766;SDS011;8501;49.926;8.404;2023-03-21T01:15:57;14.63;;;7.90;;
16766;SDS011;8501;49.926;8.404;2023-03-21T01:18:25;11.30;;;7.30;;
16766;SDS011;8501;49.926;8.404;2023-03-21T01:20:52;11.50;;;7.17;;
16766;SDS011;8501;49.926;8.404;2023-03-21T01:23:19;12.60;;;7.50;;
16766;SDS011;8501;49.926;8.404;2023-03-21T01:25:46;12.37;;;7.67;;
16766;SDS011;8501;49.926;8.404;2023-03-21T01:28:12;13.20;;;7.93;;
16766;SDS011;8501;49.926;8.404;2023-03-21T01:30:38;14.83;;;8.07;;
16766;SDS011;8501;49.926;8.404;2023-03-21T01:33:03;11.17;;;7.63;;
16766;SDS011;8501;49.926;8.404;2023-03-21T01:35:29;14.47;;;7.67;;
16766;SDS011;8501;49.926;8.404;2023-03-21T01:37:54;14.57;;;8.00;;
16766;SDS011;8501;49.926;8.404;2023-03-21T01:40:21;13.10;;;7.87;;
16766;SDS011;8501;49.926;8.404;2023-03-21T01:42:49;14.00;;;8.03;;
16766;SDS011;8501;49.926;8.404;2023-03-21T01:48:18;13.63;;;7.67;;
16766;SDS011;8501;49.926;8.404;2023-03-21T01:50:45;13.77;;;8.00;;
16766;SDS011;8501;49.926;8.404;2023-03-21T01:53:11;13.30;;;7.40;;
16766;SDS011;8501;49.926;8.404;2023-03-21T01:55:38;12.37;;;7.07;;
16766;SDS011;8501;49.926;8.404;2023-03-21T01:58:04;11.97;;;7.70;;
16766;SDS011;8501;49.926;8.404;2023-03-21T02:00:32;12.23;;;7.73;;
16766;SDS011;8501;49.926;8.404;2023-03-21T02:03:01;17.13;;;7.70;;
16766;SDS011;8501;49.926;8.404;2023-03-21T02:05:36;12.80;;;8.00;;
16766;SDS011;8501;49.926;8.404;2023-03-21T02:08:15;12.50;;;8.27;;
16766;SDS011;8501;49.926;8.404;2023-03-21T02:10:41;15.47;;;8.50;;
16766;SDS011;8501;49.926;8.404;2023-03-21T02:13:09;12.30;;;7.73;;
16766;SDS011;8501;49.926;8.404;2023-03-21T02:15:40;13.90;;;7.93;;
16766;SDS011;8501;49.926;8.404;2023-03-21T02:18:16;11.87;;;7.47;;
16766;SDS011;8501;49.926;8.404;2023-03-21T02:30:24;13.43;;;7.43;;
16766;SDS011;8501;49.926;8.404;2023-03-21T02:43:53;11.07;;;7.07;;
16766;SDS011;8501;49.926;8.404;2023-03-21T02:46:29;13.90;;;7.27;;
16766;SDS011;8501;49.926;8.404;2023-03-21T02:49:20;13.70;;;7.60;;
16766;SDS011;8501;49.926;8.404;2023-03-21T02:51:47;10.90;;;7.40;;
16766;SDS011;8501;49.926;8.404;2023-03-21T02:54:15;13.80;;;7.50;;
16766;SDS011;8501;49.926;8.404;2023-03-21T02:56:44;14.47;;;8.00;;
16766;SDS011;8501;49.926;8.404;2023-03-21T02:59:13;12.70;;;8.27;;
16766;SDS011;8501;49.926;8.404;2023-03-21T03:01:41;15.17;;;7.90;;
16766;SDS011;8501;49.926;8.404;2023-03-21T03:04:17;13.80;;;8.03;;
16766;SDS011;8501;49.926;8.404;2023-03-21T03:07:01;11.83;;;8.07;;
16766;SDS011;8501;49.926;8.404;2023-03-21T03:09:30;14.17;;;7.90;;
16766;SDS011;8501;49.926;8.404;2023-03-21T03:15:04;12.07;;;7.93;;
16766;SDS011;8501;49.926;8.404;2023-03-21T03:17:53;13.90;;;7.67;;
16766;SDS011;8501;49.926;8.404;2023-03-21T03:28:30;13.43;;;8.40;;
16766;SDS011;8501;49.926;8.404;2023-03-21T03:30:58;13.03;;;8.37;;
16766;SDS011;8501;49.926;8.404;2023-03-21T03:33:25;13.30;;;8.87;;
16766;SDS011;8501;49.926;8.404;2023-03-21T03:35:53;13.43;;;8.43;;
16766;SDS011;8501;49.926;8.404;2023-03-21T03:38:21;15.40;;;8.40;;
16766;SDS011;8501;49.926;8.404;2023-03-21T03:40:51;11.60;;;7.83;;
16766;SDS011;8501;49.926;8.404;2023-03-21T03:43:23;13.70;;;7.97;;
16766;SDS011;8501;49.926;8.404;2023-03-21T03:45:55;14.40;;;8.40;;
16766;SDS011;8501;49.926;8.404;2023-03-21T03:48:33;13.10;;;8.10;;
16766;SDS011;8501;49.926;8.404;2023-03-21T03:51:11;14.33;;;8.30;;
16766;SDS011;8501;49.926;8.404;2023-03-21T03:53:45;16.50;;;8.13;;
16766;SDS011;8501;49.926;8.404;2023-03-21T03:56:18;13.93;;;8.30;;
16766;SDS011;8501;49.926;8.404;2023-03-21T03:58:44;12.97;;;8.13;;
16766;SDS011;8501;49.926;8.404;2023-03-21T04:01:10;14.27;;;8.33;;
16766;SDS011;8501;49.926;8.404;2023-03-21T04:03:36;15.57;;;9.03;;
16766;SDS011;8501;49.926;8.404;2023-03-21T04:06:05;12.67;;;8.60;;
16766;SDS011;8501;49.926;8.404;2023-03-21T04:08:31;14.23;;;9.07;;
16766;SDS011;8501;49.926;8.404;2023-03-21T04:10:56;14.50;;;8.33;;
16766;SDS011;8501;49.926;8.404;2023-03-21T04:13:22;13.30;;;8.33;;
16766;SDS011;8501;49.926;8.404;2023-03-21T04:15:48;13.90;;;8.33;;
16766;SDS011;8501;49.926;8.404;2023-03-21T04:18:13;14.97;;;8.63;;
16766;SDS011;8501;49.926;8.404;2023-03-21T04:20:39;12.97;;;7.93;;
16766;SDS011;8501;49.926;8.404;2023-03-21T04:23:05;14.00;;;8.17;;
16766;SDS011;8501;49.926;8.404;2023-03-21T04:25:35;15.00;;;8.27;;
16766;SDS011;8501;49.926;8.404;2023-03-21T04:28:01;12.87;;;8.40;;
16766;SDS011;8501;49.926;8.404;2023-03-21T04:30:27;11.17;;;7.80;;
16766;SDS011;8501;49.926;8.404;2023-03-21T04:32:52;14.53;;;7.70;;
16766;SDS011;8501;49.926;8.404;2023-03-21T04:35:20;13.97;;;7.70;;
16766;SDS011;8501;49.926;8.404;2023-03-21T04:37:47;12.23;;;7.80;;
16766;SDS011;8501;49.926;8.404;2023-03-21T04:40:12;11.27;;;7.40;;
16766;SDS011;8501;49.926;8.404;2023-03-21T04:42:41;13.40;;;7.70;;
16766;SDS011;8501;49.926;8.404;2023-03-21T04:45:07;12.07;;;8.00;;
16766;SDS011;8501;49.926;8.404;2023-03-21T04:47:33;13.90;;;8.33;;
16766;SDS011;8501;49.926;8.404;2023-03-21T04:49:59;15.77;;;9.27;;
16766;SDS011;8501;49.926;8.404;2023-03-21T04:52:24;13.77;;;8.70;;
16766;SDS011;8501;49.926;8.404;2023-03-21T04:54:50;12.43;;;7.97;;
16766;SDS011;8501;49.926;8.404;2023-03-21T04:57:16;13.93;;;9.07;;
16766;SDS011;8501;49.926;8.404;2023-03-21T04:59:42;16.17;;;8.30;;
16766;SDS011;8501;49.926;8.404;2023-03-21T05:02:07;13.20;;;8.53;;
16766;SDS011;8501;49.926;8.404;2023-03-21T05:04:33;12.77;;;7.97;;
16766;SDS011;8501;49.926;8.404;2023-03-21T05:06:59;11.30;;;8.00;;
16766;SDS011;8501;49.926;8.404;2023-03-21T05:09:24;12.97;;;8.00;;
16766;SDS011;8501;49.926;8.404;2023-03-21T05:11:50;14.07;;;8.73;;
16766;SDS011;8501;49.926;8.404;2023-03-21T05:14:18;13.40;;;8.40;;
16766;SDS011;8501;49.926;8.404;2023-03-21T05:16:49;15.90;;;8.97;;
16766;SDS011;8501;49.926;8.404;2023-03-21T05:19:18;12.67;;;8.60;;
16766;SDS011;8501;49.926;8.404;2023-03-21T05:21:46;12.60;;;8.10;;
16766;SDS011;8501;49.926;8.404;2023-03-21T05:24:14;13.67;;;8.27;;
16766;SDS011;8501;49.926;8.404;2023-03-21T05:26:41;11.27;;;8.23;;
16766;SDS011;8501;49.926;8.404;2023-03-21T05:29:08;14.23;;;8.47;;
16766;SDS011;8501;49.926;8.404;2023-03-21T05:31:35;13.73;;;8.10;;
16766;SDS011;8501;49.926;8.404;2023-03-21T05:34:01;14.23;;;8.13;;
16766;SDS011;8501;49.926;8.404;2023-03-21T05:36:27;15.00;;;7.70;;
16766;SDS011;8501;49.926;8.404;2023-03-21T05:38:52;12.90;;;8.10;;
16766;SDS011;8501;49.926;8.404;2023-03-21T05:41:18;14.03;;;8.27;;
16766;SDS011;8501;49.926;8.404;2023-03-21T05:43:45;13.20;;;8.07;;
16766;SDS011;8501;49.926;8.404;2023-03-21T05:46:11;12.67;;;8.17;;
16766;SDS011;8501;49.926;8.404;2023-03-21T05:48:37;13.53;;;7.63;;
16766;SDS011;8501;49.926;8.404;2023-03-21T05:51:03;13.60;;;8.00;;
16766;SDS011;8501;49.926;8.404;2023-03-21T05:53:30;14.83;;;8.20;;
16766;SDS011;8501;49.926;8.404;2023-03-21T05:55:55;13.77;;;8.30;;
16766;SDS011;8501;49.926;8.404;2023-03-21T05:58:21;13.83;;;8.13;;
16766;SDS011;8501;49.926;8.404;2023-03-21T06:00:47;13.53;;;8.37;;
16766;SDS011;8501;49.926;8.404;2023-03-21T06:03:12;11.97;;;7.97;;
16766;SDS011;8501;49.926;8.404;2023-03-21T06:05:38;13.20;;;8.13;;
16766;SDS011;8501;49.926;8.404;2023-03-21T06:08:04;13.00;;;8.30;;
16766;SDS011;8501;49.926;8.404;2023-03-21T06:10:29;11.37;;;7.93;;
16766;SDS011;8501;49.926;8.404;2023-03-21T06:12:55;13.93;;;8.13;;
16766;SDS011;8501;49.926;8.404;2023-03-21T06:15:21;13.07;;;8.30;;
16766;SDS011;8501;49.926;8.404;2023-03-21T06:17:46;13.93;;;8.27;;
16766;SDS011;8501;49.926;8.404;2023-03-21T06:20:12;14.00;;;7.77;;
16766;SDS011;8501;49.926;8.404;2023-03-21T06:22:38;12.13;;;7.90;;
16766;SDS011;8501;49.926;8.404;2023-03-21T06:25:03;15.17;;;8.40;;
16766;SDS011;8501;49.926;8.404;2023-03-21T06:27:31;13.97;;;7.70;;
16766;SDS011;8501;49.926;8.404;2023-03-21T06:29:57;11.60;;;7.73;;
16766;SDS011;8501;49.926;8.404;2023-03-21T06:32:23;14.77;;;7.77;;
16766;SDS011;8501;49.926;8.404;2023-03-21T06:34:50;13.27;;;7.83;;
16766;SDS011;8501;49.926;8.404;2023-03-21T06:37:15;13.63;;;8.17;;
16766;SDS011;8501;49.926;8.404;2023-03-21T06:39:41;15.77;;;7.87;;
16766;SDS011;8501;49.926;8.404;2023-03-21T06:42:07;14.43;;;8.10;;
16766;SDS011;8501;49.926;8.404;2023-03-21T06:44:33;14.50;;;8.50;;
16766;SDS011;8501;49.926;8.404;2023-03-21T06:46:58;13.93;;;8.20;;
16766;SDS011;8501;49.926;8.404;2023-03-21T06:49:24;15.10;;;7.87;;
16766;SDS011;8501;49.926;8.404;2023-03-21T06:51:50;15.07;;;8.03;;
16766;SDS011;8501;49.926;8.404;2023-03-21T06:54:16;17.37;;;7.73;;
16766;SDS011;8501;49.926;8.404;2023-03-21T06:56:42;15.83;;;7.77;;
16766;SDS011;8501;49.926;8.404;2023-03-21T06:59:08;16.10;;;7.63;;
16766;SDS011;8501;49.926;8.404;2023-03-21T07:01:34;13.20;;;7.70;;
16766;SDS011;8501;49.926;8.404;2023-03-21T07:04:00;13.30;;;7.70;;
16766;SDS011;8501;49.926;8.404;2023-03-21T07:06:26;16.17;;;7.90;;
16766;SDS011;8501;49.926;8.404;2023-03-21T07:08:51;12.97;;;8.40;;
16766;SDS011;8501;49.926;8.404;2023-03-21T07:11:18;14.33;;;8.40;;
16766;SDS011;8501;49.926;8.404;2023-03-21T07:13:44;13.27;;;7.83;;
16766;SDS011;8501;49.926;8.404;2023-03-21T07:16:09;13.83;;;8.53;;
16766;SDS011;8501;49.926;8.404;2023-03-21T07:18:35;15.97;;;8.43;;
16766;SDS011;8501;49.926;8.404;2023-03-21T07:21:02;12.27;;;8.20;;
16766;SDS011;8501;49.926;8.404;2023-03-21T07:23:28;16.17;;;8.50;;
16766;SDS011;8501;49.926;8.404;2023-03-21T07:25:54;15.10;;;8.60;;
16766;SDS011;8501;49.926;8.404;2023-03-21T07:28:20;14.83;;;8.63;;
16766;SDS011;8501;49.926;8.404;2023-03-21T07:30:51;17.03;;;9.03;;
16766;SDS011;8501;49.926;8.404;2023-03-21T07:33:22;12.43;;;8.23;;
16766;SDS011;8501;49.926;8.404;2023-03-21T07:35:49;14.17;;;8.23;;
16766;SDS011;8501;49.926;8.404;2023-03-21T07:38:16;13.03;;;8.10;;
16766;SDS011;8501;49.926;8.404;2023-03-21T07:40:42;12.03;;;8.20;;
16766;SDS011;8501;49.926;8.404;2023-03-21T07:43:08;14.47;;;8.67;;
16766;SDS011;8501;49.926;8.404;2023-03-21T07:45:34;15.13;;;8.97;;
16766;SDS011;8501;49.926;8.404;2023-03-21T07:48:00;17.43;;;8.73;;
16766;SDS011;8501;49.926;8.404;2023-03-21T07:50:26;15.47;;;8.10;;
16766;SDS011;8501;49.926;8.404;2023-03-21T07:52:51;13.77;;;8.20;;
16766;SDS011;8501;49.926;8.404;2023-03-21T07:55:17;15.33;;;7.90;;
16766;SDS011;8501;49.926;8.404;2023-03-21T07:57:43;13.83;;;7.73;;
16766;SDS011;8501;49.926;8.404;2023-03-21T08:00:09;14.67;;;8.00;;
16766;SDS011;8501;49.926;8.404;2023-03-21T08:02:36;13.13;;;7.80;;
16766;SDS011;8501;49.926;8.404;2023-03-21T08:05:01;16.57;;;8.53;;
16766;SDS011;8501;49.926;8.404;2023-03-21T08:07:28;13.50;;;7.83;;
16766;SDS011;8501;49.926;8.404;2023-03-21T08:09:54;14.43;;;8.33;;
16766;SDS011;8501;49.926;8.404;2023-03-21T08:12:20;13.33;;;8.13;;
16766;SDS011;8501;49.926;8.404;2023-03-21T08:14:46;14.47;;;8.47;;
16766;SDS011;8501;49.926;8.404;2023-03-21T08:17:11;15.10;;;8.50;;
16766;SDS011;8501;49.926;8.404;2023-03-21T08:19:37;14.63;;;8.53;;
16766;SDS011;8501;49.926;8.404;2023-03-21T08:22:02;14.03;;;8.73;;
16766;SDS011;8501;49.926;8.404;2023-03-21T08:24:29;14.70;;;8.97;;
16766;SDS011;8501;49.926;8.404;2023-03-21T08:26:55;15.10;;;8.90;;
16766;SDS011;8501;49.926;8.404;2023-03-21T08:29:22;14.67;;;8.60;;
16766;SDS011;8501;49.926;8.404;2023-03-21T08:31:49;17.30;;;9.23;;
16766;SDS011;8501;49.926;8.404;2023-03-21T08:34:14;15.87;;;9.53;;
16766;SDS011;8501;49.926;8.404;2023-03-21T08:36:41;14.60;;;8.90;;
16766;SDS011;8501;49.926;8.404;2023-03-21T08:39:07;17.27;;;9.20;;
16766;SDS011;8501;49.926;8.404;2023-03-21T08:41:34;13.80;;;8.47;;
16766;SDS011;8501;49.926;8.404;2023-03-21T08:44:01;16.73;;;8.40;;
16766;SDS011;8501;49.926;8.404;2023-03-21T08:46:28;14.27;;;8.13;;
16766;SDS011;8501;49.926;8.404;2023-03-21T08:48:55;16.47;;;8.87;;
16766;SDS011;8501;49.926;8.404;2023-03-21T08:51:21;16.40;;;8.70;;
16766;SDS011;8501;49.926;8.404;2023-03-21T08:53:46;18.73;;;9.40;;
16766;SDS011;8501;49.926;8.404;2023-03-21T08:56:14;14.67;;;8.73;;
16766;SDS011;8501;49.926;8.404;2023-03-21T08:58:41;15.37;;;8.60;;
16766;SDS011;8501;49.926;8.404;2023-03-21T09:01:06;15.40;;;9.03;;
16766;SDS011;8501;49.926;8.404;2023-03-21T09:03:35;13.63;;;8.73;;
16766;SDS011;8501;49.926;8.404;2023-03-21T09:06:02;17.20;;;9.13;;
16766;SDS011;8501;49.926;8.404;2023-03-21T09:08:28;15.10;;;9.10;;
16766;SDS011;8501;49.926;8.404;2023-03-21T09:10:54;17.27;;;9.00;;
16766;SDS011;8501;49.926;8.404;2023-03-21T09:13:20;17.43;;;8.73;;
16766;SDS011;8501;49.926;8.404;2023-03-21T09:15:46;14.73;;;8.97;;
16766;SDS011;8501;49.926;8.404;2023-03-21T09:18:12;16.17;;;9.00;;
16766;SDS011;8501;49.926;8.404;2023-03-21T09:20:39;15.10;;;9.00;;
16766;SDS011;8501;49.926;8.404;2023-03-21T09:23:06;19.37;;;8.63;;
16766;SDS011;8501;49.926;8.404;2023-03-21T09:25:33;14.73;;;8.73;;
16766;SDS011;8501;49.926;8.404;2023-03-21T09:27:59;16.63;;;8.80;;
16766;SDS011;8501;49.926;8.404;2023-03-21T09:30:24;16.67;;;8.27;;
16766;SDS011;8501;49.926;8.404;2023-03-21T09:32:51;15.30;;;8.00;;
16766;SDS011;8501;49.926;8.404;2023-03-21T09:35:17;15.23;;;8.27;;
16766;SDS011;8501;49.926;8.404;2023-03-21T09:37:44;16.93;;;7.60;;
16766;SDS011;8501;49.926;8.404;2023-03-21T09:40:15;12.57;;;8.50;;
16766;SDS011;8501;49.926;8.404;2023-03-21T09:42:55;17.60;;;8.13;;
16766;SDS011;8501;49.926;8.404;2023-03-21T09:45:35;15.20;;;8.30;;
16766;SDS011;8501;49.926;8.404;2023-03-21T09:48:32;12.27;;;7.90;;
16766;SDS011;8501;49.926;8.404;2023-03-21T09:51:26;12.07;;;7.67;;
16766;SDS011;8501;49.926;8.404;2023-03-21T09:53:55;14.20;;;7.83;;
16766;SDS011;8501;49.926;8.404;2023-03-21T09:56:24;13.40;;;7.47;;
16766;SDS011;8501;49.926;8.404;2023-03-21T09:58:51;14.63;;;6.93;;
16766;SDS011;8501;49.926;8.404;2023-03-21T10:01:27;10.40;;;6.00;;
16766;SDS011;8501;49.926;8.404;2023-03-21T10:03:58;10.17;;;6.13;;
16766;SDS011;8501;49.926;8.404;2023-03-21T10:06:26;9.57;;;6.37;;
16766;SDS011;8501;49.926;8.404;2023-03-21T10:08:54;14.00;;;6.53;;
16766;SDS011;8501;49.926;8.404;2023-03-21T10:11:42;8.57;;;5.93;;
16766;SDS011;8501;49.926;8.404;2023-03-21T10:17:03;11.17;;;6.00;;
16766;SDS011;8501;49.926;8.404;2023-03-21T10:19:50;11.20;;;5.57;;
16766;SDS011;8501;49.926;8.404;2023-03-21T10:22:22;9.53;;;5.67;;
16766;SDS011;8501;49.926;8.404;2023-03-21T10:24:48;11.37;;;5.73;;
16766;SDS011;8501;49.926;8.404;2023-03-21T10:27:13;9.60;;;5.23;;
16766;SDS011;8501;49.926;8.404;2023-03-21T10:29:43;13.73;;;6.10;;
16766;SDS011;8501;49.926;8.404;2023-03-21T10:32:10;14.03;;;6.87;;
16766;SDS011;8501;49.926;8.404;2023-03-21T10:34:48;10.33;;;7.20;;
16766;SDS011;8501;49.926;8.404;2023-03-21T10:37:52;14.23;;;7.30;;
16766;SDS011;8501;49.926;8.404;2023-03-21T10:40:17;11.23;;;6.13;;
16766;SDS011;8501;49.926;8.404;2023-03-21T10:42:43;12.80;;;5.97;;
16766;SDS011;8501;49.926;8.404;2023-03-21T10:45:18;10.40;;;5.37;;
16766;SDS011;8501;49.926;8.404;2023-03-21T10:47:46;9.53;;;5.20;;
16766;SDS011;8501;49.926;8.404;2023-03-21T10:50:14;8.93;;;5.63;;
16766;SDS011;8501;49.926;8.404;2023-03-21T10:52:45;8.27;;;5.47;;
16766;SDS011;8501;49.926;8.404;2023-03-21T10:55:20;8.27;;;5.50;;
16766;SDS011;8501;49.926;8.404;2023-03-21T10:57:46;11.60;;;6.00;;
16766;SDS011;8501;49.926;8.404;2023-03-21T11:00:18;10.93;;;5.70;;
16766;SDS011;8501;49.926;8.404;2023-03-21T11:02:47;11.13;;;6.00;;
16766;SDS011;8501;49.926;8.404;2023-03-21T11:05:22;9.00;;;5.83;;
16766;SDS011;8501;49.926;8.404;2023-03-21T11:13:38;11.60;;;5.70;;
16766;SDS011;8501;49.926;8.404;2023-03-21T11:16:06;11.63;;;5.27;;
16766;SDS011;8501;49.926;8.404;2023-03-21T11:18:42;12.17;;;5.57;;
16766;SDS011;8501;49.926;8.404;2023-03-21T11:21:13;11.50;;;5.97;;
16766;SDS011;8501;49.926;8.404;2023-03-21T11:23:41;14.97;;;6.53;;
16766;SDS011;8501;49.926;8.404;2023-03-21T11:26:24;10.90;;;6.00;;
16766;SDS011;8501;49.926;8.404;2023-03-21T11:28:54;12.53;;;5.70;;
16766;SDS011;8501;49.926;8.404;2023-03-21T11:31:20;12.27;;;8.50;;
16766;SDS011;8501;49.926;8.404;2023-03-21T11:33:52;9.60;;;6.13;;
16766;SDS011;8501;49.926;8.404;2023-03-21T11:38:53;11.87;;;5.23;;
16766;SDS011;8501;49.926;8.404;2023-03-21T11:41:29;13.93;;;6.43;;
16766;SDS011;8501;49.926;8.404;2023-03-21T11:43:57;9.10;;;4.77;;
16766;SDS011;8501;49.926;8.404;2023-03-21T11:46:25;8.13;;;4.80;;
16766;SDS011;8501;49.926;8.404;2023-03-21T11:48:53;7.50;;;5.13;;
16766;SDS011;8501;49.926;8.404;2023-03-21T11:51:40;10.80;;;6.00;;
16766;SDS011;8501;49.926;8.404;2023-03-21T11:54:30;6.20;;;4.47;;
16766;SDS011;8501;49.926;8.404;2023-03-21T11:57:15;9.10;;;4.90;;
16766;SDS011;8501;49.926;8.404;2023-03-21T12:00:14;9.03;;;4.60;;
16766;SDS011;8501;49.926;8.404;2023-03-21T12:02:49;8.17;;;4.10;;
16766;SDS011;8501;49.926;8.404;2023-03-21T12:06:02;10.30;;;4.80;;
16766;SDS011;8501;49.926;8.404;2023-03-21T12:08:44;8.23;;;4.53;;
16766;SDS011;8501;49.926;8.404;2023-03-21T12:16:52;7.80;;;4.53;;
16766;SDS011;8501;49.926;8.404;2023-03-21T12:28:26;9.53;;;5.57;;
16766;SDS011;8501;49.926;8.404;2023-03-21T12:31:07;7.63;;;4.97;;
16766;SDS011;8501;49.926;8.404;2023-03-21T12:42:08;8.93;;;5.70;;
16766;SDS011;8501;49.926;8.404;2023-03-21T12:44:49;10.30;;;5.47;;
16766;SDS011;8501;49.926;8.404;2023-03-21T12:47:22;9.63;;;6.03;;
16766;SDS011;8501;49.926;8.404;2023-03-21T12:50:01;8.90;;;6.00;;
16766;SDS011;8501;49.926;8.404;2023-03-21T12:52:43;10.70;;;6.17;;
16766;SDS011;8501;49.926;8.404;2023-03-21T13:00:33;10.10;;;5.93;;
16766;SDS011;8501;49.926;8.404;2023-03-21T13:03:19;10.90;;;6.47;;
16766;SDS011;8501;49.926;8.404;2023-03-21T13:05:49;10.60;;;6.53;;
16766;SDS011;8501;49.926;8.404;2023-03-21T13:10:46;10.83;;;6.70;;
16766;SDS011;8501;49.926;8.404;2023-03-21T13:18:47;11.57;;;7.17;;
16766;SDS011;8501;49.926;8.404;2023-03-21T13:21:20;12.97;;;7.20;;
16766;SDS011;8501;49.926;8.404;2023-03-21T13:24:04;10.90;;;5.97;;
16766;SDS011;8501;49.926;8.404;2023-03-21T13:26:35;12.33;;;6.90;;
16766;SDS011;8501;49.926;8.404;2023-03-21T13:29:11;10.63;;;6.63;;
16766;SDS011;8501;49.926;8.404;2023-03-21T13:31:58;9.50;;;6.60;;
16766;SDS011;8501;49.926;8.404;2023-03-21T13:34:59;11.77;;;6.47;;
16766;SDS011;8501;49.926;8.404;2023-03-21T13:37:55;11.97;;;6.73;;
16766;SDS011;8501;49.926;8.404;2023-03-21T13:42:54;13.97;;;7.77;;
16766;SDS011;8501;49.926;8.404;2023-03-21T13:45:31;13.67;;;7.30;;
16766;SDS011;8501;49.926;8.404;2023-03-21T13:48:24;12.03;;;6.60;;
16766;SDS011;8501;49.926;8.404;2023-03-21T13:53:28;13.70;;;8.53;;
16766;SDS011;8501;49.926;8.404;2023-03-21T13:56:00;12.53;;;7.93;;
16766;SDS011;8501;49.926;8.404;2023-03-21T13:58:36;14.63;;;8.47;;
16766;SDS011;8501;49.926;8.404;2023-03-21T14:03:58;12.77;;;7.57;;
16766;SDS011;8501;49.926;8.404;2023-03-21T14:06:40;15.40;;;8.37;;
16766;SDS011;8501;49.926;8.404;2023-03-21T14:09:11;13.23;;;7.63;;
16766;SDS011;8501;49.926;8.404;2023-03-21T14:11:50;15.67;;;7.80;;
16766;SDS011;8501;49.926;8.404;2023-03-21T14:14:18;11.27;;;7.80;;
16766;SDS011;8501;49.926;8.404;2023-03-21T14:16:45;12.73;;;8.57;;
16766;SDS011;8501;49.926;8.404;2023-03-21T14:19:10;13.57;;;8.77;;
16766;SDS011;8501;49.926;8.404;2023-03-21T14:21:36;14.03;;;8.10;;
16766;SDS011;8501;49.926;8.404;2023-03-21T14:24:13;12.80;;;8.20;;
16766;SDS011;8501;49.926;8.404;2023-03-21T14:26:50;14.53;;;8.43;;
16766;SDS011;8501;49.926;8.404;2023-03-21T14:29:28;15.37;;;8.63;;
16766;SDS011;8501;49.926;8.404;2023-03-21T14:31:56;13.27;;;8.13;;
16766;SDS011;8501;49.926;8.404;2023-03-21T14:34:24;15.03;;;7.83;;
16766;SDS011;8501;49.926;8.404;2023-03-21T14:36:51;16.23;;;8.53;;
16766;SDS011;8501;49.926;8.404;2023-03-21T14:39:21;15.10;;;9.40;;
16766;SDS011;8501;49.926;8.404;2023-03-21T14:41:55;12.90;;;8.77;;
16766;SDS011;8501;49.926;8.404;2023-03-21T14:47:15;17.70;;;8.73;;
16766;SDS011;8501;49.926;8.404;2023-03-21T14:49:43;16.60;;;9.40;;
16766;SDS011;8501;49.926;8.404;2023-03-21T14:52:10;16.33;;;8.90;;
16766;SDS011;8501;49.926;8.404;2023-03-21T14:55:10;14.13;;;8.43;;
16766;SDS011;8501;49.926;8.404;2023-03-21T14:57:39;13.37;;;8.80;;
16766;SDS011;8501;49.926;8.404;2023-03-21T15:00:06;18.47;;;9.10;;
16766;SDS011;8501;49.926;8.404;2023-03-21T15:02:40;14.93;;;8.80;;
16766;SDS011;8501;49.926;8.404;2023-03-21T15:08:22;13.30;;;9.10;;
16766;SDS011;8501;49.926;8.404;2023-03-21T15:13:30;15.27;;;9.30;;
16766;SDS011;8501;49.926;8.404;2023-03-21T15:16:10;14.57;;;9.30;;
16766;SDS011;8501;49.926;8.404;2023-03-21T15:18:38;16.87;;;9.67;;
16766;SDS011;8501;49.926;8.404;2023-03-21T15:21:10;17.40;;;9.87;;
16766;SDS011;8501;49.926;8.404;2023-03-21T15:23:39;14.23;;;9.23;;
16766;SDS011;8501;49.926;8.404;2023-03-21T15:26:14;15.43;;;9.23;;
16766;SDS011;8501;49.926;8.404;2023-03-21T15:28:41;18.00;;;10.47;;
16766;SDS011;8501;49.926;8.404;2023-03-21T15:31:28;18.93;;;10.33;;
16766;SDS011;8501;49.926;8.404;2023-03-21T15:33:58;16.60;;;9.83;;
16766;SDS011;8501;49.926;8.404;2023-03-21T15:36:28;17.87;;;10.03;;
16766;SDS011;8501;49.926;8.404;2023-03-21T15:39:05;15.40;;;9.77;;
16766;SDS011;8501;49.926;8.404;2023-03-21T15:41:33;18.27;;;10.60;;
16766;SDS011;8501;49.926;8.404;2023-03-21T15:44:05;18.40;;;10.23;;
16766;SDS011;8501;49.926;8.404;2023-03-21T15:46:41;18.50;;;11.17;;
16766;SDS011;8501;49.926;8.404;2023-03-21T15:51:57;18.97;;;11.30;;
16766;SDS011;8501;49.926;8.404;2023-03-21T15:54:35;18.50;;;10.77;;
16766;SDS011;8501;49.926;8.404;2023-03-21T15:57:23;17.37;;;11.07;;
16766;SDS011;8501;49.926;8.404;2023-03-21T15:59:59;17.50;;;10.87;;
16766;SDS011;8501;49.926;8.404;2023-03-21T16:02:35;16.13;;;10.40;;
16766;SDS011;8501;49.926;8.404;2023-03-21T16:05:18;17.70;;;12.03;;
16766;SDS011;8501;49.926;8.404;2023-03-21T16:07:57;16.33;;;10.90;;
16766;SDS011;8501;49.926;8.404;2023-03-21T16:10:30;16.30;;;10.33;;
16766;SDS011;8501;49.926;8.404;2023-03-21T16:13:01;18.47;;;11.07;;
16766;SDS011;8501;49.926;8.404;2023-03-21T16:15:27;18.73;;;10.70;;
16766;SDS011;8501;49.926;8.404;2023-03-21T16:17:56;14.87;;;10.43;;
16766;SDS011;8501;49.926;8.404;2023-03-21T16:20:28;18.50;;;10.80;;
16766;SDS011;8501;49.926;8.404;2023-03-21T16:22:58;17.33;;;10.83;;
16766;SDS011;8501;49.926;8.404;2023-03-21T16:25:23;18.30;;;11.23;;
16766;SDS011;8501;49.926;8.404;2023-03-21T16:27:49;16.40;;;10.13;;
16766;SDS011;8501;49.926;8.404;2023-03-21T16:30:17;16.20;;;10.67;;
16766;SDS011;8501;49.926;8.404;2023-03-21T16:32:44;18.70;;;11.03;;
16766;SDS011;8501;49.926;8.404;2023-03-21T16:35:10;23.53;;;12.57;;
16766;SDS011;8501;49.926;8.404;2023-03-21T16:37:36;18.13;;;11.43;;
16766;SDS011;8501;49.926;8.404;2023-03-21T16:40:03;18.30;;;11.90;;
16766;SDS011;8501;49.926;8.404;2023-03-21T16:42:35;20.07;;;11.93;;
16766;SDS011;8501;49.926;8.404;2023-03-21T16:45:00;21.13;;;12.37;;
16766;SDS011;8501;49.926;8.404;2023-03-21T16:47:26;18.50;;;11.10;;